Time,TemperatureF,DewpointF,PressureIn,WindDirection,WindDirectionDegrees,WindSpeedMPH,WindSpeedGustMPH,Humidity,HourlyPrecipIn,Conditions,Clouds,dailyrainin,SoftwareType,DateUTC
2013-12-21 00:12:00,39.0,29.0,29.97,NNE,24,0.0,1.0,68,0.00,,,0.00,,2013-12-21 08:12:00,
2013-12-21 00:21:00,39.0,30.0,29.96,NNE,24,0.0,1.0,69,0.00,,,0.00,,2013-12-21 08:21:00,
2013-12-21 00:42:00,38.0,29.0,29.96,NNE,24,0.0,1.0,70,0.00,,,0.00,,2013-12-21 08:42:00,
2013-12-21 00:52:00,38.0,30.0,29.95,NNE,24,0.0,1.0,72,0.00,,,0.00,,2013-12-21 08:52:00,
2013-12-21 01:12:00,38.0,30.0,29.95,NNE,24,0.0,1.0,72,0.00,,,0.00,,2013-12-21 09:12:00,
2013-12-21 01:22:00,38.0,30.0,29.95,NNE,24,0.0,0.0,73,0.00,,,0.00,,2013-12-21 09:22:00,
2013-12-21 01:43:00,37.0,29.0,29.95,NNE,24,0.0,1.0,74,0.00,,,0.00,,2013-12-21 09:43:00,
2013-12-21 01:54:00,37.0,29.0,29.96,NNE,24,0.0,1.0,74,0.00,,,0.00,,2013-12-21 09:54:00,
2013-12-21 02:12:00,37.0,29.0,29.95,WSW,239,0.0,2.0,74,0.00,,,0.00,,2013-12-21 10:12:00,
2013-12-21 02:23:00,37.0,30.0,29.96,WSW,239,0.0,0.0,75,0.00,,,0.00,,2013-12-21 10:23:00,
2013-12-21 02:43:00,37.0,30.0,29.96,WSW,239,0.0,0.0,75,0.00,,,0.00,,2013-12-21 10:43:00,
2013-12-21 02:53:00,37.0,30.0,29.97,WSW,239,0.0,0.0,77,0.00,,,0.00,,2013-12-21 10:53:00,
2013-12-21 03:12:00,37.0,30.0,29.97,WSW,239,0.0,0.0,77,0.00,,,0.00,,2013-12-21 11:12:00,
2013-12-21 03:22:00,37.0,31.0,29.97,WSW,239,0.0,0.0,78,0.00,,,0.00,,2013-12-21 11:22:00,
2013-12-21 03:42:00,36.0,30.0,29.97,WSW,239,0.0,1.0,79,0.00,,,0.00,,2013-12-21 11:42:00,
2013-12-21 03:53:00,36.0,30.0,29.97,WSW,239,0.0,1.0,79,0.00,,,0.00,,2013-12-21 11:53:00,
2013-12-21 04:12:00,36.0,30.0,29.97,WSW,239,0.0,0.0,80,0.00,,,0.00,,2013-12-21 12:12:00,
2013-12-21 04:21:00,36.0,30.0,29.98,WSW,239,0.0,0.0,80,0.00,,,0.00,,2013-12-21 12:21:00,
2013-12-21 04:42:00,36.0,31.0,29.98,WSW,239,0.0,0.0,81,0.00,,,0.00,,2013-12-21 12:42:00,
2013-12-21 04:52:00,36.0,31.0,29.97,WSW,239,0.0,0.0,82,0.00,,,0.00,,2013-12-21 12:52:00,
2013-12-21 05:11:00,36.0,31.0,29.98,WSW,239,0.0,0.0,82,0.00,,,0.00,,2013-12-21 13:11:00,
2013-12-21 05:21:00,36.0,31.0,29.97,WSW,239,0.0,1.0,83,0.00,,,0.00,,2013-12-21 13:21:00,
2013-12-21 05:42:00,36.0,31.0,29.98,WSW,239,0.0,0.0,83,0.00,,,0.00,,2013-12-21 13:42:00,
2013-12-21 05:52:00,36.0,32.0,29.98,WSW,239,0.0,1.0,84,0.00,,,0.00,,2013-12-21 13:52:00,
2013-12-21 06:12:00,36.0,32.0,29.98,WSW,239,0.0,1.0,84,0.00,,,0.00,,2013-12-21 14:12:00,
2013-12-21 06:22:00,36.0,32.0,29.98,WSW,239,0.0,1.0,85,0.00,,,0.00,,2013-12-21 14:22:00,
2013-12-21 06:42:00,36.0,32.0,29.99,WSW,239,0.0,1.0,85,0.00,,,0.00,,2013-12-21 14:42:00,
2013-12-21 06:53:00,36.0,32.0,29.98,WSW,239,0.0,1.0,86,0.00,,,0.00,,2013-12-21 14:53:00,
2013-12-21 07:12:00,36.0,32.0,29.99,WSW,239,0.0,0.0,86,0.00,,,0.00,,2013-12-21 15:12:00,
2013-12-21 07:21:00,36.0,33.0,29.99,WSW,239,0.0,0.0,87,0.00,,,0.00,,2013-12-21 15:21:00,
2013-12-21 07:43:00,36.0,33.0,30.00,WSW,239,0.0,0.0,88,0.00,,,0.00,,2013-12-21 15:43:00,
2013-12-21 07:53:00,36.0,33.0,30.00,WSW,239,0.0,1.0,88,0.00,,,0.00,,2013-12-21 15:53:00,
2013-12-21 08:13:00,37.0,35.0,30.01,WSW,239,0.0,0.0,92,0.00,,,0.00,,2013-12-21 16:13:00,
2013-12-21 08:22:00,37.0,35.0,30.01,WSW,239,0.0,0.0,92,0.00,,,0.00,,2013-12-21 16:22:00,
2013-12-21 08:53:00,38.0,36.0,30.02,WSW,239,0.0,0.0,91,0.00,,,0.00,,2013-12-21 16:53:00,
2013-12-21 09:12:00,40.0,38.0,30.02,WSW,239,0.0,0.0,92,0.00,,,0.00,,2013-12-21 17:12:00,
2013-12-21 09:22:00,42.0,40.0,30.03,WSW,239,0.0,0.0,92,0.00,,,0.00,,2013-12-21 17:22:00,
2013-12-21 09:43:00,45.0,42.0,30.03,WSW,239,0.0,0.0,88,0.00,,,0.00,,2013-12-21 17:43:00,
2013-12-21 09:52:00,49.0,42.0,30.03,WSW,239,0.0,2.0,77,0.00,,,0.00,,2013-12-21 17:52:00,
2013-12-21 10:12:00,51.0,43.0,30.03,SW,214,0.0,2.0,74,0.00,,,0.00,,2013-12-21 18:12:00,
2013-12-21 10:22:00,54.0,44.0,30.03,SW,214,0.0,1.0,70,0.00,,,0.00,,2013-12-21 18:22:00,
2013-12-21 10:42:00,55.0,45.0,30.04,SW,214,0.0,1.0,70,0.00,,,0.00,,2013-12-21 18:42:00,
2013-12-21 10:52:00,57.0,47.0,30.04,NW,325,2.0,4.0,69,0.00,,,0.00,,2013-12-21 18:52:00,
2013-12-21 11:11:00,57.0,48.0,30.03,NNE,15,2.0,7.0,71,0.00,,,0.00,,2013-12-21 19:11:00,
2013-12-21 11:21:00,57.0,48.0,30.03,NW,322,0.0,6.0,71,0.00,,,0.00,,2013-12-21 19:21:00,
2013-12-21 11:42:00,58.0,48.0,30.03,NNW,342,3.0,6.0,69,0.00,,,0.00,,2013-12-21 19:42:00,
2013-12-21 11:52:00,58.0,48.0,30.02,NNE,30,1.0,5.0,69,0.00,,,0.00,,2013-12-21 19:52:00,
2013-12-21 12:12:00,58.0,47.0,30.02,North,5,3.0,6.0,68,0.00,,,0.00,,2013-12-21 20:12:00,
2013-12-21 12:22:00,58.0,48.0,30.01,NNE,28,3.0,9.0,70,0.00,,,0.00,,2013-12-21 20:22:00,
2013-12-21 12:52:00,58.0,48.0,30.00,West,262,1.0,9.0,69,0.00,,,0.00,,2013-12-21 20:52:00,
2013-12-21 13:11:00,60.0,49.0,29.99,NE,50,2.0,8.0,66,0.00,,,0.00,,2013-12-21 21:11:00,
2013-12-21 13:22:00,60.0,47.0,29.99,NNE,28,3.0,8.0,63,0.00,,,0.00,,2013-12-21 21:22:00,
2013-12-21 13:43:00,59.0,48.0,29.99,NNE,27,1.0,8.0,66,0.00,,,0.00,,2013-12-21 21:43:00,
2013-12-21 13:53:00,61.0,48.0,29.98,ENE,62,3.0,8.0,63,0.00,,,0.00,,2013-12-21 21:53:00,
2013-12-21 14:12:00,62.0,48.0,29.98,NNW,335,1.0,5.0,61,0.00,,,0.00,,2013-12-21 22:12:00,
2013-12-21 14:22:00,61.0,48.0,29.98,NNW,336,2.0,5.0,63,0.00,,,0.00,,2013-12-21 22:22:00,
2013-12-21 14:42:00,59.0,48.0,29.98,North,5,1.0,5.0,67,0.00,,,0.00,,2013-12-21 22:42:00,
2013-12-21 14:53:00,60.0,49.0,29.98,West,269,0.0,4.0,66,0.00,,,0.00,,2013-12-21 22:53:00,
2013-12-21 15:12:00,61.0,49.0,29.97,NW,326,1.0,3.0,65,0.00,,,0.00,,2013-12-21 23:12:00,
2013-12-21 15:22:00,60.0,49.0,29.97,NNE,13,1.0,4.0,66,0.00,,,0.00,,2013-12-21 23:22:00,
2013-12-21 15:43:00,61.0,50.0,29.97,NNE,27,0.0,4.0,67,0.00,,,0.00,,2013-12-21 23:43:00,
2013-12-21 15:53:00,62.0,50.0,29.97,North,351,0.0,3.0,65,0.00,,,0.00,,2013-12-21 23:53:00,
2013-12-21 16:11:00,63.0,50.0,29.96,North,9,0.0,5.0,62,0.00,,,0.00,,2013-12-22 00:11:00,
2013-12-21 16:21:00,64.0,49.0,29.96,NE,44,0.0,3.0,59,0.00,,,0.00,,2013-12-22 00:21:00,
2013-12-21 16:42:00,62.0,47.0,29.96,NE,45,0.0,3.0,58,0.00,,,0.00,,2013-12-22 00:42:00,
2013-12-21 16:52:00,60.0,47.0,29.96,NE,45,0.0,1.0,62,0.00,,,0.00,,2013-12-22 00:52:00,
2013-12-21 17:11:00,59.0,47.0,29.96,NE,45,0.0,0.0,64,0.00,,,0.00,,2013-12-22 01:11:00,
2013-12-21 17:22:00,57.0,47.0,29.96,NE,45,0.0,0.0,68,0.00,,,0.00,,2013-12-22 01:22:00,
2013-12-21 17:42:00,55.0,46.0,29.97,NE,45,0.0,0.0,72,0.00,,,0.00,,2013-12-22 01:42:00,
2013-12-21 17:52:00,54.0,46.0,29.98,NE,45,0.0,0.0,74,0.00,,,0.00,,2013-12-22 01:52:00,
2013-12-21 18:11:00,52.0,45.0,29.98,NE,45,0.0,0.0,77,0.00,,,0.00,,2013-12-22 02:11:00,
2013-12-21 18:22:00,51.0,45.0,29.99,NE,45,0.0,1.0,81,0.00,,,0.00,,2013-12-22 02:22:00,
2013-12-21 18:42:00,50.0,45.0,29.99,NE,45,0.0,0.0,83,0.00,,,0.00,,2013-12-22 02:42:00,
2013-12-21 18:52:00,50.0,45.0,30.00,NE,45,0.0,0.0,84,0.00,,,0.00,,2013-12-22 02:52:00,
2013-12-21 19:11:00,49.0,45.0,30.01,NE,45,0.0,0.0,85,0.00,,,0.00,,2013-12-22 03:11:00,
2013-12-21 19:22:00,48.0,44.0,30.01,NE,45,0.0,0.0,87,0.00,,,0.00,,2013-12-22 03:22:00,
2013-12-21 19:43:00,48.0,45.0,30.01,NE,45,0.0,1.0,89,0.00,,,0.00,,2013-12-22 03:43:00,
2013-12-21 19:54:00,48.0,45.0,30.01,NE,45,0.0,1.0,90,0.00,,,0.00,,2013-12-22 03:54:00,
2013-12-21 20:02:00,-999.0,-99.9,30.02,NE,45,0.0,0.0,-999,0.00,,,-99.99,,2013-12-22 04:02:00,
2013-12-21 20:13:00,47.0,45.0,30.02,NE,45,0.0,0.0,92,0.00,,,0.00,,2013-12-22 04:13:00,
2013-12-21 20:23:00,48.0,46.0,30.02,NE,45,0.0,1.0,93,0.00,,,0.00,,2013-12-22 04:23:00,
2013-12-21 20:43:00,48.0,46.0,30.02,NE,45,0.0,1.0,93,0.00,,,0.00,,2013-12-22 04:43:00,
2013-12-21 20:52:00,45.0,43.0,30.03,NE,45,0.0,0.0,91,0.00,,,0.00,,2013-12-22 04:52:00,
2013-12-21 21:22:00,44.0,42.0,30.03,NE,45,0.0,0.0,91,0.00,,,0.00,,2013-12-22 05:22:00,
2013-12-21 21:43:00,43.0,41.0,30.03,NE,45,0.0,0.0,92,0.00,,,0.00,,2013-12-22 05:43:00,
2013-12-21 21:53:00,43.0,41.0,30.04,NE,45,0.0,0.0,92,0.00,,,0.00,,2013-12-22 05:53:00,
2013-12-21 22:12:00,43.0,41.0,30.04,NE,45,0.0,1.0,93,0.00,,,0.00,,2013-12-22 06:12:00,
2013-12-21 22:22:00,43.0,41.0,30.04,NE,45,0.0,1.0,92,0.00,,,0.00,,2013-12-22 06:22:00,
2013-12-21 22:42:00,42.0,40.0,30.05,NE,45,0.0,1.0,92,0.00,,,0.00,,2013-12-22 06:42:00,
2013-12-21 22:52:00,42.0,40.0,30.05,NE,45,0.0,1.0,93,0.00,,,0.00,,2013-12-22 06:52:00,
2013-12-21 23:11:00,42.0,40.0,30.05,NE,45,0.0,0.0,93,0.00,,,0.00,,2013-12-22 07:11:00,
2013-12-21 23:22:00,41.0,39.0,30.05,NE,45,0.0,1.0,93,0.00,,,0.00,,2013-12-22 07:22:00,
2013-12-21 23:42:00,41.0,39.0,30.06,NE,45,0.0,0.0,93,0.00,,,0.00,,2013-12-22 07:42:00,
2013-12-21 23:52:00,41.0,39.0,30.06,NE,45,0.0,0.0,93,0.00,,,0.00,,2013-12-22 07:52:00,